createdAt,value
2022-08-11T00:03:16.247Z,40.3
2022-08-11T00:18:16.121Z,40.3
2022-08-11T00:33:17.663Z,39.8
2022-08-11T00:48:18.665Z,39.9
2022-08-11T01:03:20.679Z,40.3
2022-08-11T01:18:21.111Z,39.5
2022-08-11T01:33:21.209Z,39.8
2022-08-11T01:48:23.511Z,40.3
2022-08-11T02:03:23.925Z,40.4
2022-08-11T02:18:24.854Z,39.8
2022-08-11T02:33:25.395Z,40.3
2022-08-11T02:48:27.131Z,39.7
2022-08-11T03:03:06.051Z,39.8
2022-08-11T03:18:06.163Z,39.9
2022-08-11T03:33:06.659Z,40.2
2022-08-11T03:48:07.731Z,39.7
2022-08-11T04:03:09.391Z,40
2022-08-11T04:18:09.943Z,40.3
2022-08-11T04:33:10.822Z,40.4
2022-08-11T04:48:11.643Z,40.3
2022-08-11T05:03:12.895Z,39.9
2022-08-11T05:18:14.536Z,40.2
2022-08-11T05:33:14.148Z,40.4
2022-08-11T05:48:16.068Z,40.2
2022-08-11T06:03:16.171Z,40.6
2022-08-11T06:18:17.250Z,40.5
2022-08-11T06:33:19.643Z,40.8
2022-08-11T06:48:19.934Z,40.8
2022-08-11T07:03:20.528Z,40
2022-08-11T07:18:23.523Z,40.2
2022-08-11T07:34:12.156Z,40.1
2022-08-11T07:48:23.684Z,40.8
2022-08-11T08:03:25.088Z,42.5
2022-08-11T08:18:28.023Z,46.8
2022-08-11T08:33:27.247Z,47.2
2022-08-11T08:48:28.564Z,48.2
2022-08-11T09:04:04.354Z,48.4
2022-08-11T09:18:04.052Z,48.2
2022-08-11T09:33:05.619Z,49.9
2022-08-11T09:48:06.602Z,50.9
2022-08-11T10:03:08.370Z,48.3
2022-08-11T10:18:08.882Z,50.2
2022-08-11T10:33:19.055Z,50.1
2022-08-11T10:48:17.911Z,51.6
2022-08-11T11:03:24.491Z,48.8
2022-08-11T11:18:13.618Z,51.3
2022-08-11T11:33:14.202Z,48.2
2022-08-11T11:48:15.061Z,48.7
2022-08-11T12:03:16.032Z,49.8
2022-08-11T12:18:16.718Z,49.6
2022-08-11T12:33:26.568Z,49.9
2022-08-11T12:49:03.002Z,46.1
2022-08-11T13:03:20.064Z,45.2
2022-08-11T13:18:21.403Z,48.2
2022-08-11T13:33:21.720Z,44.6
2022-08-11T13:48:22.811Z,48.4
2022-08-11T14:03:24.891Z,45.3
2022-08-11T14:18:24.564Z,45.1
2022-08-11T14:33:59.130Z,45
2022-08-11T14:48:26.878Z,45.1
2022-08-11T15:03:05.581Z,44.5
2022-08-11T15:18:07.034Z,44.7
2022-08-11T15:33:10.705Z,47.8
2022-08-11T15:48:11.203Z,51.1
2022-08-11T16:03:15.616Z,51.2
2022-08-11T16:18:11.060Z,45.3
2022-08-11T16:33:51.700Z,40.2
2022-08-11T16:48:39.049Z,41.1
2022-08-11T17:03:17.881Z,40.6
2022-08-11T17:18:14.788Z,40.9
2022-08-11T17:33:16.567Z,40.5
2022-08-11T17:48:17.563Z,40.5
2022-08-11T18:03:18.801Z,40.5
2022-08-11T18:18:20.261Z,40.3
2022-08-11T18:34:06.230Z,39.9
2022-08-11T18:48:21.328Z,40.2
2022-08-11T19:03:22.006Z,40.1
2022-08-11T19:18:23.179Z,40
2022-08-11T19:34:11.301Z,40.3
2022-08-11T19:48:33.730Z,39.9
2022-08-11T20:03:26.168Z,40.3
2022-08-11T20:18:26.679Z,40.2
2022-08-11T20:33:27.566Z,40.3
2022-08-11T20:48:30.671Z,40.1
2022-08-11T21:03:04.174Z,40
2022-08-11T21:18:08.397Z,40.2
2022-08-11T21:33:04.419Z,40.4
2022-08-11T21:48:07.314Z,40
2022-08-11T22:03:08.607Z,40
2022-08-11T22:18:08.955Z,40
2022-08-11T22:33:11.773Z,40
2022-08-11T22:48:11.505Z,40
2022-08-11T23:03:38.074Z,39.5
2022-08-11T23:18:12.433Z,40.1
2022-08-11T23:33:13.848Z,39.5
2022-08-11T23:48:14.840Z,40.4
